createdAt,value
2023-10-24T00:00:38.398Z,10.9
2023-10-24T00:01:40.162Z,10.9
2023-10-24T00:02:42.482Z,10.9
2023-10-24T00:03:45.261Z,10.9
2023-10-24T00:04:47.515Z,10.9
2023-10-24T00:05:49.547Z,10.8
2023-10-24T00:06:51.138Z,10.8
2023-10-24T00:07:52.934Z,10.8
2023-10-24T00:08:56.992Z,10.8
2023-10-24T00:09:58.497Z,10.8
2023-10-24T00:10:59.996Z,10.8
2023-10-24T00:12:01.665Z,10.8
2023-10-24T00:13:03.531Z,10.8
2023-10-24T00:14:05.191Z,10.8
2023-10-24T00:15:06.990Z,10.8
2023-10-24T00:16:08.899Z,10.8
2023-10-24T00:17:11.211Z,10.8
2023-10-24T00:18:15.079Z,10.8
2023-10-24T00:19:16.658Z,10.8
2023-10-24T00:20:19.949Z,10.8
2023-10-24T00:21:21.399Z,10.8
2023-10-24T00:22:23.218Z,10.8
2023-10-24T00:23:26.111Z,10.8
2023-10-24T00:24:29.953Z,10.8
2023-10-24T00:25:33.262Z,10.8
2023-10-24T00:26:36.061Z,10.8
2023-10-24T00:27:39.594Z,10.8
2023-10-24T00:28:43.070Z,10.7
2023-10-24T00:29:47.449Z,10.7
2023-10-24T00:30:50.955Z,10.7
2023-10-24T00:31:54.450Z,10.7
2023-10-24T00:32:57.234Z,10.7
2023-10-24T00:33:59.660Z,10.7
2023-10-24T00:35:01.878Z,10.7
2023-10-24T00:36:04.220Z,10.6
2023-10-24T00:37:07.788Z,10.6
2023-10-24T00:38:12.225Z,10.6
2023-10-24T00:39:14.683Z,10.6
2023-10-24T00:40:16.322Z,10.6
2023-10-24T00:41:18.374Z,10.5
2023-10-24T00:42:19.827Z,10.5
2023-10-24T00:43:21.684Z,10.5
2023-10-24T00:44:23.838Z,10.5
2023-10-24T00:45:25.256Z,10.4
2023-10-24T00:46:26.855Z,10.4
2023-10-24T00:47:29.056Z,10.4
2023-10-24T00:48:30.823Z,10.4
2023-10-24T00:49:32.477Z,10.3
2023-10-24T00:50:34.607Z,10.3
2023-10-24T00:51:36.030Z,10.3
2023-10-24T00:52:37.587Z,10.3
2023-10-24T00:53:43.292Z,10.2
2023-10-24T00:54:46.449Z,10.2
2023-10-24T00:55:48.189Z,10.2
2023-10-24T00:56:50.216Z,10.2
2023-10-24T00:57:51.685Z,10.2
2023-10-24T00:58:53.721Z,10.2
2023-10-24T00:59:55.331Z,10.2
2023-10-24T01:00:56.864Z,10.2
2023-10-24T01:01:58.633Z,10.2
2023-10-24T01:03:01.663Z,10.2
2023-10-24T01:04:04.687Z,10.2
2023-10-24T01:05:06.958Z,10.2
2023-10-24T01:06:08.547Z,10.2
2023-10-24T01:07:10.078Z,10.2
2023-10-24T01:08:12.185Z,10.3
2023-10-24T01:09:13.765Z,10.3
2023-10-24T01:10:15.409Z,10.3
2023-10-24T01:11:17.490Z,10.3
2023-10-24T01:12:18.944Z,10.3
2023-10-24T01:13:20.671Z,10.4
2023-10-24T01:14:22.489Z,10.4
2023-10-24T01:15:24.095Z,10.4
2023-10-24T01:16:25.730Z,10.4
2023-10-24T01:17:28.329Z,10.4
2023-10-24T01:18:30.310Z,10.5
2023-10-24T01:19:34.857Z,10.5
2023-10-24T01:20:36.872Z,10.5
2023-10-24T01:21:38.447Z,10.5
2023-10-24T01:22:40.070Z,10.6
2023-10-24T01:23:42.208Z,10.6
2023-10-24T01:24:43.741Z,10.6
2023-10-24T01:25:45.430Z,10.6
2023-10-24T01:26:47.232Z,10.6
2023-10-24T01:27:48.676Z,10.6
2023-10-24T01:28:50.245Z,10.6
2023-10-24T01:29:52.167Z,10.6
2023-10-24T01:30:53.626Z,10.6
2023-10-24T01:31:55.848Z,10.6
2023-10-24T01:32:58.356Z,10.6
2023-10-24T01:34:00.453Z,10.5
2023-10-24T01:35:01.955Z,10.5
2023-10-24T01:36:03.423Z,10.5
2023-10-24T01:37:04.867Z,10.5
2023-10-24T01:38:06.570Z,10.5
2023-10-24T01:39:08.131Z,10.4
2023-10-24T01:40:10.024Z,10.4
2023-10-24T01:41:12.155Z,10.4
2023-10-24T01:42:13.625Z,10.4
2023-10-24T01:43:15.211Z,10.4
2023-10-24T01:44:17.255Z,10.4
2023-10-24T01:45:21.265Z,10.3
2023-10-24T01:46:23.037Z,10.3
2023-10-24T01:47:25.288Z,10.3
2023-10-24T01:48:27.339Z,10.3
2023-10-24T01:49:29.026Z,10.3
2023-10-24T01:50:30.701Z,10.3
2023-10-24T01:51:32.963Z,10.3
2023-10-24T01:52:34.838Z,10.3
2023-10-24T01:53:36.696Z,10.3
2023-10-24T01:54:38.426Z,10.3
2023-10-24T01:55:41.739Z,10.3
2023-10-24T01:56:43.846Z,10.3
2023-10-24T01:57:45.312Z,10.3
2023-10-24T01:58:46.865Z,10.3
2023-10-24T01:59:48.689Z,10.3
2023-10-24T02:00:50.157Z,10.3
2023-10-24T02:01:52.336Z,10.3
2023-10-24T02:02:54.925Z,10.3
2023-10-24T02:03:57.715Z,10.3
2023-10-24T02:04:59.282Z,10.3
2023-10-24T02:06:01.546Z,10.3
2023-10-24T02:07:02.999Z,10.3
2023-10-24T02:08:04.453Z,10.3
2023-10-24T02:09:05.910Z,10.3
2023-10-24T02:10:07.327Z,10.3
2023-10-24T02:11:09.345Z,10.3
2023-10-24T02:12:11.002Z,10.3
2023-10-24T02:13:12.478Z,10.3
2023-10-24T02:14:14.214Z,10.3
2023-10-24T02:15:16.023Z,10.3
2023-10-24T02:16:17.667Z,10.3
2023-10-24T02:17:19.952Z,10.3
2023-10-24T02:18:21.455Z,10.3
2023-10-24T02:19:23.157Z,10.3
2023-10-24T02:20:25.163Z,10.3
2023-10-24T02:21:26.677Z,10.3
2023-10-24T02:22:28.341Z,10.3
2023-10-24T02:23:30.130Z,10.3
2023-10-24T02:24:31.582Z,10.3
2023-10-24T02:25:33.106Z,10.3
2023-10-24T02:26:35.230Z,10.3
2023-10-24T02:27:36.765Z,10.3
2023-10-24T02:28:38.442Z,10.3
2023-10-24T02:29:41.313Z,10.3
2023-10-24T02:30:42.810Z,10.3
2023-10-24T02:31:44.537Z,10.3
2023-10-24T02:32:47.226Z,10.3
2023-10-24T02:33:49.046Z,10.3
2023-10-24T02:34:51.216Z,10.3
2023-10-24T02:35:53.449Z,10.3
2023-10-24T02:36:54.892Z,10.3
2023-10-24T02:37:56.428Z,10.3
2023-10-24T02:38:57.997Z,10.3
2023-10-24T02:39:59.414Z,10.3
2023-10-24T02:41:01.239Z,10.3
2023-10-24T02:42:03.228Z,10.3
2023-10-24T02:43:05.142Z,10.3
2023-10-24T02:44:06.992Z,10.3
2023-10-24T02:45:08.629Z,10.3
2023-10-24T02:46:10.101Z,10.4
2023-10-24T02:47:12.081Z,10.4
2023-10-24T02:48:15.152Z,10.4
2023-10-24T02:49:17.297Z,10.4
2023-10-24T02:50:18.955Z,10.4
2023-10-24T02:51:20.390Z,10.4
2023-10-24T02:52:22.004Z,10.4
2023-10-24T02:53:23.847Z,10.4
2023-10-24T02:54:25.285Z,10.4
2023-10-24T02:55:26.783Z,10.4
2023-10-24T02:56:28.595Z,10.5
2023-10-24T02:57:30.971Z,10.5
2023-10-24T02:58:33.114Z,10.5
2023-10-24T02:59:34.960Z,10.5
2023-10-24T03:00:36.434Z,10.5
2023-10-24T03:01:38.328Z,10.5
2023-10-24T03:02:40.813Z,10.5
2023-10-24T03:03:43.083Z,10.5
2023-10-24T03:04:45.352Z,10.5
2023-10-24T03:05:47.403Z,10.6
2023-10-24T03:06:48.845Z,10.6
2023-10-24T03:07:50.409Z,10.6
2023-10-24T03:08:52.722Z,10.6
2023-10-24T03:09:54.196Z,10.6
2023-10-24T03:10:55.721Z,10.6
2023-10-24T03:11:57.528Z,10.6
2023-10-24T03:12:59.457Z,10.6
2023-10-24T03:14:01.058Z,10.6
2023-10-24T03:15:02.414Z,10.6
2023-10-24T03:16:03.808Z,10.6
2023-10-24T03:17:05.678Z,10.6
2023-10-24T03:18:08.203Z,10.6
2023-10-24T03:19:10.191Z,10.6
2023-10-24T03:20:11.615Z,10.6
2023-10-24T03:21:13.565Z,10.6
2023-10-24T03:22:15.264Z,10.6
2023-10-24T03:23:16.985Z,10.7
2023-10-24T03:24:18.457Z,10.7
2023-10-24T03:25:19.958Z,10.7
2023-10-24T03:26:21.921Z,10.7
2023-10-24T03:27:23.367Z,10.7
2023-10-24T03:28:24.933Z,10.7
2023-10-24T03:29:26.807Z,10.7
2023-10-24T03:30:28.303Z,10.7
2023-10-24T03:31:30.398Z,10.7
2023-10-24T03:32:32.249Z,10.7
2023-10-24T03:33:36.760Z,10.7
2023-10-24T03:34:38.541Z,10.6
2023-10-24T03:35:41.490Z,10.6
2023-10-24T03:36:43.199Z,10.6
2023-10-24T03:37:44.873Z,10.6
2023-10-24T03:38:47.121Z,10.6
2023-10-24T03:39:48.852Z,10.6
2023-10-24T03:40:50.545Z,10.6
2023-10-24T03:41:52.470Z,10.6
2023-10-24T03:42:54.116Z,10.6
2023-10-24T03:43:55.661Z,10.6
2023-10-24T03:44:57.986Z,10.6
2023-10-24T03:45:59.883Z,10.6
2023-10-24T03:47:02.041Z,10.6
2023-10-24T03:48:04.713Z,10.6
2023-10-24T03:49:06.744Z,10.6
2023-10-24T03:50:08.520Z,10.6
2023-10-24T03:51:10.226Z,10.6
2023-10-24T03:52:11.883Z,10.6
2023-10-24T03:53:13.427Z,10.6
2023-10-24T03:54:14.871Z,10.6
2023-10-24T03:55:16.406Z,10.6
2023-10-24T03:56:18.159Z,10.6
2023-10-24T03:57:19.850Z,10.5
2023-10-24T03:58:21.440Z,10.5
2023-10-24T03:59:23.302Z,10.5
2023-10-24T04:00:25.260Z,10.5
2023-10-24T04:01:27.122Z,10.5
2023-10-24T04:02:29.006Z,10.5
2023-10-24T04:03:30.953Z,10.5
2023-10-24T04:04:33.265Z,10.5
2023-10-24T04:05:35.420Z,10.5
2023-10-24T04:06:36.855Z,10.5
2023-10-24T04:07:38.445Z,10.5
2023-10-24T04:08:40.571Z,10.5
2023-10-24T04:09:42.404Z,10.5
2023-10-24T04:10:43.993Z,10.5
2023-10-24T04:11:46.133Z,10.5
2023-10-24T04:12:47.559Z,10.5
2023-10-24T04:13:49.244Z,10.5
2023-10-24T04:14:51.720Z,10.5
2023-10-24T04:15:53.213Z,10.5
2023-10-24T04:16:54.776Z,10.4
2023-10-24T04:17:57.378Z,10.4
2023-10-24T04:18:59.810Z,10.4
2023-10-24T04:20:01.569Z,10.4
2023-10-24T04:21:03.196Z,10.4
2023-10-24T04:22:04.709Z,10.4
2023-10-24T04:23:06.275Z,10.4
2023-10-24T04:24:07.759Z,10.4
2023-10-24T04:25:09.696Z,10.4
2023-10-24T04:26:11.188Z,10.4
2023-10-24T04:27:12.669Z,10.4
2023-10-24T04:28:14.303Z,10.4
2023-10-24T04:29:16.554Z,10.4
2023-10-24T04:30:19.134Z,10.4
2023-10-24T04:31:20.870Z,10.4
2023-10-24T04:32:23.043Z,10.4
2023-10-24T04:33:24.492Z,10.4
2023-10-24T04:34:26.751Z,10.4
2023-10-24T04:35:28.701Z,10.4
2023-10-24T04:36:30.184Z,10.4
2023-10-24T04:37:31.753Z,10.4
2023-10-24T04:38:33.523Z,10.4
2023-10-24T04:39:35.176Z,10.4
2023-10-24T04:40:37.004Z,10.4
2023-10-24T04:41:38.984Z,10.4
2023-10-24T04:42:40.412Z,10.5
2023-10-24T04:43:42.212Z,10.5
2023-10-24T04:44:44.401Z,10.5
2023-10-24T04:45:46.216Z,10.5
2023-10-24T04:46:48.203Z,10.4
2023-10-24T04:47:50.432Z,10.4
2023-10-24T04:48:52.159Z,10.4
2023-10-24T04:49:53.772Z,10.4
2023-10-24T04:50:55.836Z,10.4
2023-10-24T04:51:57.546Z,10.4
2023-10-24T04:52:58.977Z,10.4
2023-10-24T04:54:01.468Z,10.4
2023-10-24T04:55:02.933Z,10.4
2023-10-24T04:56:04.581Z,10.4
2023-10-24T04:57:06.293Z,10.4
2023-10-24T04:58:07.760Z,10.4
2023-10-24T04:59:09.554Z,10.4
2023-10-24T05:00:11.016Z,10.4
2023-10-24T05:01:12.753Z,10.4
2023-10-24T05:02:14.912Z,10.4
2023-10-24T05:03:17.253Z,10.4
2023-10-24T05:04:19.634Z,10.4
2023-10-24T05:05:21.287Z,10.4
2023-10-24T05:06:22.816Z,10.4
2023-10-24T05:07:24.501Z,10.4
2023-10-24T05:08:26.742Z,10.4
2023-10-24T05:09:28.472Z,10.4
2023-10-24T05:10:30.459Z,10.4
2023-10-24T05:11:32.603Z,10.4
2023-10-24T05:12:34.474Z,10.4
2023-10-24T05:13:36.231Z,10.4
2023-10-24T05:14:38.681Z,10.4
2023-10-24T05:15:41.358Z,10.4
2023-10-24T05:16:43.804Z,10.4
2023-10-24T05:17:45.971Z,10.4
2023-10-24T05:18:48.098Z,10.4
2023-10-24T05:19:49.669Z,10.4
2023-10-24T05:20:51.902Z,10.4
2023-10-24T05:21:53.330Z,10.4
2023-10-24T05:22:57.247Z,10.4
2023-10-24T05:23:59.398Z,10.4
2023-10-24T05:25:00.855Z,10.4
2023-10-24T05:26:02.934Z,10.4
2023-10-24T05:27:05.330Z,10.4
2023-10-24T05:28:07.610Z,10.4
2023-10-24T05:29:09.082Z,10.4
2023-10-24T05:30:10.700Z,10.5
2023-10-24T05:31:12.287Z,10.5
2023-10-24T05:32:14.758Z,10.5
2023-10-24T05:33:17.265Z,10.5
2023-10-24T05:34:19.276Z,10.5
2023-10-24T05:35:21.303Z,10.5
2023-10-24T05:36:22.795Z,10.5
2023-10-24T05:37:24.577Z,10.5
2023-10-24T05:38:26.395Z,10.5
2023-10-24T05:39:27.835Z,10.5
2023-10-24T05:40:29.404Z,10.4
2023-10-24T05:41:31.453Z,10.4
2023-10-24T05:42:32.984Z,10.4
2023-10-24T05:43:34.584Z,10.4
2023-10-24T05:44:36.603Z,10.4
2023-10-24T05:45:38.349Z,10.4
2023-10-24T05:46:40.648Z,10.4
2023-10-24T05:47:42.772Z,10.4
2023-10-24T05:48:45.087Z,10.4
2023-10-24T05:49:46.720Z,10.4
2023-10-24T05:50:49.747Z,10.4
2023-10-24T05:51:51.369Z,10.5
2023-10-24T05:52:52.945Z,10.5
2023-10-24T05:53:55.104Z,10.5
2023-10-24T05:54:56.773Z,10.5
2023-10-24T05:56:00.653Z,10.4
2023-10-24T05:57:02.442Z,10.4
2023-10-24T05:58:04.394Z,10.4
2023-10-24T05:59:05.857Z,10.4
2023-10-24T06:00:07.367Z,10.4
2023-10-24T06:01:10.683Z,10.4
2023-10-24T06:02:12.945Z,10.4
2023-10-24T06:03:15.123Z,10.4
2023-10-24T06:04:17.712Z,10.4
2023-10-24T06:05:19.796Z,10.4
2023-10-24T06:06:21.227Z,10.4
2023-10-24T06:07:22.831Z,10.4
2023-10-24T06:08:24.595Z,10.4
2023-10-24T06:09:26.204Z,10.4
2023-10-24T06:10:27.709Z,10.4
2023-10-24T06:11:29.805Z,10.4
2023-10-24T06:12:31.254Z,10.4
2023-10-24T06:13:32.859Z,10.4
2023-10-24T06:14:35.668Z,10.4
2023-10-24T06:15:37.416Z,10.4
2023-10-24T06:16:39.190Z,10.4
2023-10-24T06:17:41.575Z,10.4
2023-10-24T06:18:43.579Z,10.5
2023-10-24T06:19:45.205Z,10.5
2023-10-24T06:20:47.113Z,10.5
2023-10-24T06:21:48.683Z,10.5
2023-10-24T06:22:50.356Z,10.5
2023-10-24T06:23:52.376Z,10.5
2023-10-24T06:24:54.081Z,10.5
2023-10-24T06:25:55.646Z,10.5
2023-10-24T06:26:57.453Z,10.6
2023-10-24T06:27:58.877Z,10.6
2023-10-24T06:29:00.470Z,10.6
2023-10-24T06:30:02.622Z,10.6
2023-10-24T06:31:04.303Z,10.6
2023-10-24T06:32:06.869Z,10.6
2023-10-24T06:33:09.948Z,10.6
2023-10-24T06:34:12.100Z,10.6
2023-10-24T06:35:13.702Z,10.6
2023-10-24T06:36:15.135Z,10.6
2023-10-24T06:37:16.628Z,10.6
2023-10-24T06:38:18.193Z,10.6
2023-10-24T06:39:19.671Z,10.7
2023-10-24T06:40:21.401Z,10.7
2023-10-24T06:41:23.098Z,10.7
2023-10-24T06:42:24.629Z,10.7
2023-10-24T06:43:26.276Z,10.7
2023-10-24T06:44:28.225Z,10.7
2023-10-24T06:45:32.883Z,10.7
2023-10-24T06:46:37.175Z,10.8
2023-10-24T06:47:39.007Z,10.8
2023-10-24T06:48:40.969Z,10.8
2023-10-24T06:49:43.199Z,10.8
2023-10-24T06:50:45.737Z,10.8
2023-10-24T06:51:47.582Z,10.8
2023-10-24T06:52:49.257Z,10.8
2023-10-24T06:53:51.006Z,10.8
2023-10-24T06:54:52.462Z,10.8
2023-10-24T06:55:54.100Z,10.8
2023-10-24T06:56:56.645Z,10.9
2023-10-24T06:58:00.666Z,10.9
2023-10-24T06:59:02.202Z,10.9
2023-10-24T07:00:04.283Z,10.9
2023-10-24T07:01:06.016Z,10.9
2023-10-24T07:02:07.983Z,10.9
2023-10-24T07:03:10.238Z,10.9
2023-10-24T07:04:12.384Z,10.9
2023-10-24T07:05:14.053Z,10.9
2023-10-24T07:06:15.674Z,10.9
2023-10-24T07:07:17.204Z,10.9
2023-10-24T07:08:18.825Z,10.9
2023-10-24T07:09:20.677Z,11
2023-10-24T07:10:22.377Z,11
2023-10-24T07:11:24.690Z,11
2023-10-24T07:12:26.219Z,11
2023-10-24T07:13:28.087Z,11
2023-10-24T07:14:30.191Z,11
2023-10-24T07:15:32.527Z,11
2023-10-24T07:16:35.709Z,11
2023-10-24T07:17:37.640Z,11.1
2023-10-24T07:18:39.729Z,11.1
2023-10-24T07:19:41.567Z,11.1
2023-10-24T07:20:44.485Z,11.1
2023-10-24T07:21:46.260Z,11.1
2023-10-24T07:22:47.925Z,11.1
2023-10-24T07:23:50.194Z,11.1
2023-10-24T07:24:51.710Z,11.1
2023-10-24T07:25:53.592Z,11.1
2023-10-24T07:26:55.742Z,11.1
2023-10-24T07:27:57.200Z,11.1
2023-10-24T07:28:58.911Z,11.1
2023-10-24T07:30:01.392Z,11.1
2023-10-24T07:31:03.035Z,11.1
2023-10-24T07:32:05.648Z,11.1
2023-10-24T07:33:08.168Z,11.1
2023-10-24T07:34:10.061Z,11.1
2023-10-24T07:35:11.846Z,11.2
2023-10-24T07:36:13.490Z,11.2
2023-10-24T07:37:15.062Z,11.2
2023-10-24T07:38:16.712Z,11.2
2023-10-24T07:39:18.230Z,11.2
2023-10-24T07:40:20.228Z,11.2
2023-10-24T07:41:22.560Z,11.2
2023-10-24T07:42:24.282Z,11.3
2023-10-24T07:43:25.874Z,11.3
2023-10-24T07:44:27.938Z,11.3
2023-10-24T07:45:29.526Z,11.3
2023-10-24T07:46:31.281Z,11.3
2023-10-24T07:47:33.872Z,11.3
2023-10-24T07:48:36.425Z,11.3
2023-10-24T07:49:38.100Z,11.4
2023-10-24T07:50:39.935Z,11.4
2023-10-24T07:51:41.524Z,11.4
2023-10-24T07:52:43.234Z,11.4
2023-10-24T07:53:45.244Z,11.4
2023-10-24T07:54:46.969Z,11.4
2023-10-24T07:55:48.580Z,11.4
2023-10-24T07:56:50.513Z,11.5
2023-10-24T07:57:51.994Z,11.5
2023-10-24T07:58:53.511Z,11.5
2023-10-24T07:59:55.843Z,11.5
2023-10-24T08:00:57.522Z,11.5
2023-10-24T08:01:59.751Z,11.5
2023-10-24T08:03:02.987Z,11.5
2023-10-24T08:04:05.500Z,11.5
2023-10-24T08:05:07.270Z,11.5
2023-10-24T08:06:08.803Z,11.5
2023-10-24T08:07:10.336Z,11.5
2023-10-24T08:08:12.143Z,11.5
2023-10-24T08:09:14.137Z,11.5
2023-10-24T08:10:15.618Z,11.5
2023-10-24T08:11:17.252Z,11.5
2023-10-24T08:12:18.425Z,11.6
2023-10-24T08:13:20.109Z,11.6
2023-10-24T08:14:21.889Z,11.6
2023-10-24T08:15:23.334Z,11.6
2023-10-24T08:16:25.079Z,11.6
2023-10-24T08:17:27.656Z,11.6
2023-10-24T08:18:30.278Z,11.7
2023-10-24T08:19:32.407Z,11.7
2023-10-24T08:20:33.820Z,11.7
2023-10-24T08:21:35.062Z,11.8
2023-10-24T08:22:36.492Z,11.8
2023-10-24T08:23:39.009Z,11.8
2023-10-24T08:24:40.784Z,11.8
2023-10-24T08:25:42.523Z,11.8
2023-10-24T08:27:09.717Z,11.9
2023-10-24T08:28:13.238Z,11.9
2023-10-24T08:29:14.762Z,11.9
2023-10-24T08:30:16.202Z,11.9
2023-10-24T08:31:17.994Z,11.9
2023-10-24T08:32:20.481Z,11.9
2023-10-24T08:33:23.197Z,11.9
2023-10-24T08:34:25.688Z,11.9
2023-10-24T08:35:27.172Z,11.9
2023-10-24T08:36:28.305Z,11.9
2023-10-24T08:37:29.954Z,11.9
2023-10-24T08:38:32.166Z,11.9
2023-10-24T08:39:33.665Z,12
2023-10-24T08:40:35.364Z,12
2023-10-24T08:41:37.321Z,12
2023-10-24T08:42:38.967Z,12
2023-10-24T08:43:42.164Z,12
2023-10-24T08:44:44.021Z,12.1
2023-10-24T08:45:45.558Z,12.1
2023-10-24T08:46:47.064Z,12.1
2023-10-24T08:47:49.880Z,12.1
2023-10-24T08:48:51.884Z,12.2
2023-10-24T08:49:53.439Z,12.2
2023-10-24T08:50:54.631Z,12.2
2023-10-24T08:51:56.317Z,12.3
2023-10-24T08:52:57.844Z,12.3
2023-10-24T08:54:00.543Z,12.4
2023-10-24T08:55:02.208Z,12.4
2023-10-24T08:56:04.118Z,12.4
2023-10-24T08:57:05.985Z,12.5
2023-10-24T08:58:07.639Z,12.5
2023-10-24T08:59:09.274Z,12.6
2023-10-24T09:00:13.273Z,12.6
2023-10-24T09:01:15.864Z,12.6
2023-10-24T09:02:17.889Z,12.7
2023-10-24T09:03:19.826Z,12.7
2023-10-24T09:04:22.328Z,12.8
2023-10-24T09:05:24.383Z,12.8
2023-10-24T09:06:26.014Z,12.8
2023-10-24T09:07:27.743Z,12.9
2023-10-24T09:08:29.600Z,12.9
2023-10-24T09:09:31.159Z,12.9
2023-10-24T09:10:33.025Z,13
2023-10-24T09:11:35.162Z,13
2023-10-24T09:12:36.777Z,13
2023-10-24T09:13:38.470Z,13
2023-10-24T09:14:54.877Z,13
2023-10-24T09:15:57.145Z,13.1
2023-10-24T09:16:59.162Z,13.1
2023-10-24T09:18:01.941Z,13.1
2023-10-24T09:19:04.416Z,13.1
2023-10-24T09:20:05.990Z,13.1
2023-10-24T09:21:08.008Z,13.1
2023-10-24T09:22:09.747Z,13.1
2023-10-24T09:23:11.233Z,13.1
2023-10-24T09:24:12.711Z,13.1
2023-10-24T09:25:16.751Z,13.1
2023-10-24T09:26:18.288Z,13.1
2023-10-24T09:27:19.722Z,13.1
2023-10-24T09:28:21.200Z,13.1
2023-10-24T09:29:24.624Z,13.2
2023-10-24T09:30:41.641Z,13.2
2023-10-24T09:31:43.715Z,13.2
2023-10-24T09:32:45.864Z,13.3
2023-10-24T09:33:48.232Z,13.3
2023-10-24T09:34:50.236Z,13.3
2023-10-24T09:36:13.768Z,13.3
2023-10-24T09:37:23.899Z,13.4
2023-10-24T09:38:25.868Z,13.4
2023-10-24T09:39:27.338Z,13.4
2023-10-24T09:40:29.133Z,13.4
2023-10-24T09:41:31.139Z,13.4
2023-10-24T09:42:39.814Z,13.5
2023-10-24T09:43:42.537Z,13.5
2023-10-24T09:44:44.258Z,13.5
2023-10-24T09:45:45.753Z,13.5
2023-10-24T09:46:47.613Z,13.5
2023-10-24T09:47:50.307Z,13.6
2023-10-24T09:48:53.023Z,13.6
2023-10-24T09:49:54.680Z,13.6
2023-10-24T09:50:56.825Z,13.6
2023-10-24T09:51:58.252Z,13.6
2023-10-24T09:53:04.423Z,13.7
2023-10-24T09:54:06.219Z,13.7
2023-10-24T09:55:07.901Z,13.7
2023-10-24T09:56:10.502Z,13.7
2023-10-24T09:57:12.140Z,13.8
2023-10-24T09:58:13.592Z,13.8
2023-10-24T09:59:15.111Z,13.8
2023-10-24T10:00:17.031Z,13.8
2023-10-24T10:01:18.700Z,13.8
2023-10-24T10:02:20.590Z,13.8
2023-10-24T10:03:23.459Z,13.8
2023-10-24T10:04:26.334Z,13.8
2023-10-24T10:05:29.121Z,13.8
2023-10-24T10:07:00.614Z,13.8
2023-10-24T10:08:10.983Z,13.8
2023-10-24T10:09:13.305Z,13.8
2023-10-24T10:10:14.913Z,13.8
2023-10-24T10:11:16.719Z,13.8
2023-10-24T10:12:18.513Z,13.8
2023-10-24T10:13:20.300Z,13.8
2023-10-24T10:14:21.739Z,13.8
2023-10-24T10:15:23.204Z,13.8
2023-10-24T10:16:24.880Z,13.8
2023-10-24T10:17:27.343Z,13.8
2023-10-24T10:18:29.570Z,13.8
2023-10-24T10:19:31.247Z,13.7
2023-10-24T10:20:33.255Z,13.7
2023-10-24T10:21:34.805Z,13.7
2023-10-24T10:22:36.491Z,13.7
2023-10-24T10:23:38.730Z,13.7
2023-10-24T10:24:41.372Z,13.7
2023-10-24T10:25:44.382Z,13.7
2023-10-24T10:26:46.526Z,13.6
2023-10-24T10:27:48.208Z,13.6
2023-10-24T10:28:49.807Z,13.6
2023-10-24T10:30:17.121Z,13.6
2023-10-24T10:33:02.429Z,13.6
2023-10-24T10:34:13.326Z,13.6
2023-10-24T10:35:16.122Z,13.5
2023-10-24T10:36:19.032Z,13.5
2023-10-24T10:37:21.282Z,13.5
2023-10-24T10:38:22.717Z,13.5
2023-10-24T10:39:24.169Z,13.5
2023-10-24T10:40:26.070Z,13.5
2023-10-24T10:41:28.799Z,13.5
2023-10-24T10:42:33.220Z,13.4
2023-10-24T10:43:35.021Z,13.4
2023-10-24T10:44:42.903Z,13.4
2023-10-24T10:45:47.057Z,13.4
2023-10-24T10:46:48.925Z,13.4
2023-10-24T10:47:51.168Z,13.4
2023-10-24T10:48:53.665Z,13.4
2023-10-24T10:49:55.555Z,13.3
2023-10-24T10:50:59.056Z,13.3
2023-10-24T10:52:00.724Z,13.3
2023-10-24T10:53:02.494Z,13.3
2023-10-24T10:54:04.716Z,13.3
2023-10-24T10:55:06.175Z,13.3
2023-10-24T10:56:07.797Z,13.3
2023-10-24T10:57:09.869Z,13.3
2023-10-24T10:58:11.535Z,13.3
2023-10-24T10:59:14.294Z,13.3
2023-10-24T11:00:38.820Z,13.3
2023-10-24T11:01:42.315Z,13.2
2023-10-24T11:02:44.873Z,13.2
2023-10-24T11:03:47.320Z,13.2
2023-10-24T11:04:50.284Z,13.2
2023-10-24T11:05:52.629Z,13.2
2023-10-24T11:06:54.247Z,13.2
2023-10-24T11:07:56.011Z,13.2
2023-10-24T11:08:58.417Z,13.2
2023-10-24T11:10:00.068Z,13.3
2023-10-24T11:11:02.192Z,13.3
2023-10-24T11:12:04.618Z,13.3
2023-10-24T11:13:06.042Z,13.3
2023-10-24T11:14:08.161Z,13.3
2023-10-24T11:15:10.324Z,13.3
2023-10-24T11:16:35.218Z,13.3
2023-10-24T11:17:41.973Z,13.3
2023-10-24T11:18:44.911Z,13.3
2023-10-24T11:19:46.558Z,13.3
2023-10-24T11:20:48.153Z,13.3
2023-10-24T11:21:50.576Z,13.3
2023-10-24T11:22:52.976Z,13.3
2023-10-24T11:23:55.108Z,13.3
2023-10-24T11:24:56.664Z,13.3
2023-10-24T11:25:58.163Z,13.3
2023-10-24T11:27:00.122Z,13.3
2023-10-24T11:28:01.861Z,13.3
2023-10-24T11:29:03.444Z,13.3
2023-10-24T11:30:05.580Z,13.3
2023-10-24T11:31:07.121Z,13.3
2023-10-24T11:32:09.139Z,13.3
2023-10-24T11:33:12.157Z,13.3
2023-10-24T11:34:14.119Z,13.3
2023-10-24T11:35:15.625Z,13.3
2023-10-24T11:36:17.208Z,13.3
2023-10-24T11:37:24.844Z,13.3
2023-10-24T11:38:26.618Z,13.3
2023-10-24T11:39:28.085Z,13.3
2023-10-24T11:40:29.708Z,13.3
2023-10-24T11:41:31.720Z,13.3
2023-10-24T11:42:33.189Z,13.3
2023-10-24T11:43:34.783Z,13.2
2023-10-24T11:44:37.003Z,13.2
2023-10-24T11:45:38.809Z,13.2
2023-10-24T11:46:41.350Z,13.2
2023-10-24T11:47:43.484Z,13.2
2023-10-24T11:48:45.445Z,13.2
2023-10-24T11:49:47.188Z,13.2
2023-10-24T11:50:49.630Z,13.2
2023-10-24T11:51:52.164Z,13.2
2023-10-24T11:52:54.090Z,13.2
2023-10-24T11:53:56.229Z,13.1
2023-10-24T11:54:57.668Z,13.1
2023-10-24T11:55:59.342Z,13.1
2023-10-24T11:57:01.523Z,13.1
2023-10-24T11:58:02.949Z,13.1
2023-10-24T11:59:04.976Z,13.1
2023-10-24T12:00:07.166Z,13.1
2023-10-24T12:01:09.324Z,13.1
2023-10-24T12:02:11.639Z,13.1
2023-10-24T12:03:13.787Z,13
2023-10-24T12:04:16.380Z,13
2023-10-24T12:05:18.331Z,13
2023-10-24T12:06:22.133Z,13
2023-10-24T12:07:23.608Z,13
2023-10-24T12:08:25.090Z,13
2023-10-24T12:09:26.747Z,13
2023-10-24T12:10:28.323Z,12.9
2023-10-24T12:11:30.242Z,12.9
2023-10-24T12:12:31.712Z,12.9
2023-10-24T12:13:33.175Z,12.9
2023-10-24T12:14:34.977Z,12.9
2023-10-24T12:15:36.638Z,12.9
2023-10-24T12:16:58.730Z,12.8
2023-10-24T12:18:02.752Z,12.8
2023-10-24T12:19:04.812Z,12.8
2023-10-24T12:20:06.631Z,12.8
2023-10-24T12:21:08.764Z,12.8
2023-10-24T12:22:10.660Z,12.8
2023-10-24T12:23:12.310Z,12.7
2023-10-24T12:24:14.370Z,12.7
2023-10-24T12:25:16.333Z,12.7
2023-10-24T12:26:17.975Z,12.7
2023-10-24T12:27:19.965Z,12.7
2023-10-24T12:28:21.426Z,12.6
2023-10-24T12:29:22.863Z,12.6
2023-10-24T12:30:24.317Z,12.6
2023-10-24T12:31:25.859Z,12.6
2023-10-24T12:32:28.020Z,12.6
2023-10-24T12:33:30.378Z,12.6
2023-10-24T12:34:31.964Z,12.5
2023-10-24T12:35:34.043Z,12.5
2023-10-24T12:36:35.493Z,12.5
2023-10-24T12:37:37.016Z,12.5
2023-10-24T12:38:39.412Z,12.5
2023-10-24T12:39:41.753Z,12.5
2023-10-24T12:40:44.290Z,12.5
2023-10-24T12:41:46.085Z,12.5
2023-10-24T12:42:47.531Z,12.5
2023-10-24T12:43:49.492Z,12.5
2023-10-24T12:44:51.452Z,12.5
2023-10-24T12:45:53.001Z,12.5
2023-10-24T12:46:55.285Z,12.5
2023-10-24T12:47:57.674Z,12.5
2023-10-24T12:49:03.257Z,12.5
2023-10-24T12:50:05.143Z,12.5
2023-10-24T12:51:07.282Z,12.5
2023-10-24T12:52:08.715Z,12.5
2023-10-24T12:53:10.466Z,12.6
2023-10-24T12:54:12.624Z,12.6
2023-10-24T12:55:17.104Z,12.6
2023-10-24T12:56:18.551Z,12.6
2023-10-24T12:57:20.803Z,12.6
2023-10-24T12:58:22.348Z,12.6
2023-10-24T12:59:26.596Z,12.6
2023-10-24T13:00:28.028Z,12.6
2023-10-24T13:01:29.774Z,12.6
2023-10-24T13:02:32.437Z,12.6
2023-10-24T13:03:34.754Z,12.6
2023-10-24T13:04:37.211Z,12.6
2023-10-24T13:05:39.137Z,12.6
2023-10-24T13:06:40.611Z,12.5
2023-10-24T13:07:42.907Z,12.5
2023-10-24T13:08:44.863Z,12.5
2023-10-24T13:09:46.382Z,12.5
2023-10-24T13:10:48.692Z,12.5
2023-10-24T13:11:51.316Z,12.5
2023-10-24T13:12:52.807Z,12.4
2023-10-24T13:13:54.442Z,12.4
2023-10-24T13:14:56.474Z,12.4
2023-10-24T13:15:58.135Z,12.4
2023-10-24T13:17:15.926Z,12.4
2023-10-24T13:18:18.549Z,12.4
2023-10-24T13:19:20.875Z,12.4
2023-10-24T13:20:22.449Z,12.4
2023-10-24T13:21:24.037Z,12.4
2023-10-24T13:22:25.627Z,12.4
2023-10-24T13:23:27.187Z,12.4
2023-10-24T13:24:28.833Z,12.4
2023-10-24T13:25:30.686Z,12.4
2023-10-24T13:26:35.450Z,12.4
2023-10-24T13:27:36.916Z,12.3
2023-10-24T13:28:41.299Z,12.3
2023-10-24T13:29:43.584Z,12.3
2023-10-24T13:31:03.178Z,12.3
2023-10-24T13:32:18.581Z,12.3
2023-10-24T13:33:21.014Z,12.3
2023-10-24T13:36:11.923Z,12.3
2023-10-24T13:37:28.451Z,12.3
2023-10-24T13:38:29.881Z,12.3
2023-10-24T13:39:31.306Z,12.3
2023-10-24T13:40:32.879Z,12.3
2023-10-24T13:41:34.884Z,12.3
2023-10-24T13:42:36.572Z,12.4
2023-10-24T13:43:38.349Z,12.4
2023-10-24T13:44:40.927Z,12.4
2023-10-24T13:45:43.679Z,12.4
2023-10-24T13:46:45.551Z,12.3
2023-10-24T13:47:47.781Z,12.3
2023-10-24T13:48:49.641Z,12.3
2023-10-24T13:49:51.220Z,12.3
2023-10-24T13:50:53.547Z,12.3
2023-10-24T13:51:55.054Z,12.3
2023-10-24T13:52:56.815Z,12.3
2023-10-24T13:53:58.924Z,12.3
2023-10-24T13:55:00.389Z,12.3
2023-10-24T13:56:01.588Z,12.3